createdAt,value
2022-10-24T00:00:01.214Z,51.58
2022-10-24T00:05:00.005Z,52.07
2022-10-24T00:09:58.768Z,51.89
2022-10-24T00:14:57.527Z,51.83
2022-10-24T00:19:59.078Z,52.19
2022-10-24T00:24:57.957Z,51.99
2022-10-24T00:29:56.963Z,52.03
2022-10-24T00:34:57.318Z,52.39
2022-10-24T00:39:56.476Z,52.83
2022-10-24T00:44:55.478Z,52.77
2022-10-24T00:50:00.981Z,53.78
2022-10-24T00:55:02.893Z,53.24
2022-10-24T01:00:06.953Z,52.87
2022-10-24T01:05:09.263Z,52.64
2022-10-24T01:10:20.374Z,52.74
2022-10-24T01:15:24.633Z,52.90
2022-10-24T01:20:46.247Z,53.27
2022-10-24T01:26:00.397Z,53.75
2022-10-24T01:31:08.781Z,53.83
2022-10-24T01:36:11.428Z,54.68
2022-10-24T01:41:14.666Z,55.27
2022-10-24T01:46:19.816Z,54.88
2022-10-24T01:51:22.531Z,54.06
2022-10-24T01:56:21.396Z,54.53
2022-10-24T02:01:25.838Z,54.50
2022-10-24T02:06:31.711Z,54.34
2022-10-24T02:11:31.465Z,54.40
2022-10-24T02:16:32.315Z,54.07
2022-10-24T02:21:37.947Z,54.28
2022-10-24T02:26:44.149Z,53.90
2022-10-24T02:31:49.664Z,54.26
2022-10-24T02:36:51.337Z,54.35
2022-10-24T02:41:52.528Z,54.76
2022-10-24T02:46:55.605Z,55.50
2022-10-24T02:51:55.111Z,54.98
2022-10-24T02:56:57.932Z,54.83
2022-10-24T03:01:58.374Z,54.81
2022-10-24T03:06:57.270Z,54.84
2022-10-24T03:11:56.118Z,55.34
2022-10-24T03:16:55.028Z,55.93
2022-10-24T03:21:55.327Z,55.67
2022-10-24T03:26:54.355Z,55.13
2022-10-24T03:31:53.345Z,55.33
2022-10-24T03:36:52.291Z,55.23
2022-10-24T03:41:53.271Z,55.69
2022-10-24T03:46:52.358Z,55.27
2022-10-24T03:51:51.281Z,55.27
2022-10-24T03:56:50.401Z,55.16
2022-10-24T04:01:50.978Z,55.17
2022-10-24T04:06:49.888Z,55.15
2022-10-24T04:11:49.260Z,54.99
2022-10-24T04:16:48.269Z,55.30
2022-10-24T04:21:49.120Z,55.27
2022-10-24T04:26:48.035Z,55.00
2022-10-24T04:31:47.045Z,55.02
2022-10-24T04:36:48.425Z,54.95
2022-10-24T04:41:47.566Z,54.94
2022-10-24T04:46:50.556Z,54.92
2022-10-24T04:51:51.606Z,54.90
2022-10-24T04:56:50.710Z,54.89
2022-10-24T05:01:49.664Z,54.66
2022-10-24T05:06:48.529Z,54.67
2022-10-24T05:11:48.575Z,55.13
2022-10-24T05:16:48.536Z,55.10
2022-10-24T05:21:48.016Z,55.10
2022-10-24T05:26:49.833Z,54.92
2022-10-24T05:31:48.712Z,55.29
2022-10-24T05:36:47.921Z,55.30
2022-10-24T05:41:48.296Z,55.27
2022-10-24T05:46:48.553Z,55.96
2022-10-24T05:51:47.273Z,55.35
2022-10-24T05:56:46.467Z,54.97
2022-10-24T06:01:46.776Z,55.15
2022-10-24T06:06:46.799Z,55.02
2022-10-24T06:11:45.674Z,55.16
2022-10-24T06:16:44.522Z,55.16
2022-10-24T06:21:44.682Z,54.88
2022-10-24T06:26:43.619Z,55.06
2022-10-24T06:31:42.417Z,55.29
2022-10-24T06:41:46.438Z,55.37
2022-10-24T06:46:46.490Z,55.61
2022-10-24T06:51:45.576Z,55.83
2022-10-24T06:56:45.822Z,56.36
2022-10-24T07:01:45.281Z,56.79
2022-10-24T07:06:44.338Z,56.03
2022-10-24T07:11:43.120Z,55.82
2022-10-24T07:16:43.351Z,56.18
2022-10-24T07:21:42.072Z,56.19
2022-10-24T07:26:40.921Z,55.68
2022-10-24T07:31:39.711Z,55.85
2022-10-24T07:36:41.575Z,56.12
2022-10-24T07:41:43.235Z,56.55
2022-10-24T07:46:43.155Z,56.25
2022-10-24T07:51:46.471Z,55.12
2022-10-24T07:56:45.327Z,55.17
2022-10-24T08:01:44.263Z,54.39
2022-10-24T08:06:44.873Z,54.87
2022-10-24T08:11:45.102Z,53.84
2022-10-24T08:16:43.874Z,53.84
2022-10-24T08:21:42.583Z,54.03
2022-10-24T08:26:41.487Z,53.90
2022-10-24T08:31:42.186Z,53.02
2022-10-24T08:36:41.133Z,52.10
2022-10-24T08:41:43.782Z,50.58
2022-10-24T08:46:50.500Z,48.30
2022-10-24T08:51:54.576Z,46.90
2022-10-24T08:56:55.837Z,45.52
2022-10-24T09:02:03.414Z,43.78
2022-10-24T09:07:04.246Z,40.68
2022-10-24T09:12:05.873Z,39.36
2022-10-24T09:17:16.002Z,39.15
2022-10-24T09:22:17.998Z,37.78
2022-10-24T09:27:23.598Z,36.21
2022-10-24T09:32:27.369Z,34.85
2022-10-24T09:37:44.306Z,34.29
2022-10-24T09:42:52.014Z,34.68
2022-10-24T09:47:58.044Z,32.16
2022-10-24T09:52:59.436Z,32.67
2022-10-24T09:58:00.349Z,31.07
2022-10-24T10:03:03.521Z,31.43
2022-10-24T10:08:12.924Z,30.99
2022-10-24T10:13:24.100Z,29.20
2022-10-24T10:18:26.324Z,28.47
2022-10-24T10:23:27.147Z,28.71
2022-10-24T10:28:26.050Z,28.07
2022-10-24T10:33:32.610Z,28.86
2022-10-24T10:38:44.795Z,26.62
2022-10-24T10:43:55.143Z,26.75
2022-10-24T10:49:14.183Z,26.88
2022-10-24T10:54:33.744Z,27.13
2022-10-24T10:59:47.316Z,26.63
2022-10-24T11:04:58.298Z,25.76
2022-10-24T11:10:01.134Z,26.37
2022-10-24T11:15:04.984Z,25.57
2022-10-24T11:20:11.939Z,25.65
2022-10-24T11:25:22.168Z,26.40
2022-10-24T11:30:30.043Z,24.83
2022-10-24T11:35:33.317Z,24.04
2022-10-24T11:40:43.379Z,25.01
2022-10-24T11:45:55.281Z,24.32
2022-10-24T11:51:18.607Z,22.96
2022-10-24T11:56:27.430Z,23.01
2022-10-24T12:01:53.065Z,22.50
2022-10-24T12:07:23.514Z,22.92
2022-10-24T12:12:42.867Z,21.98
2022-10-24T12:18:05.940Z,22.36
2022-10-24T12:23:08.715Z,22.05
2022-10-24T12:28:14.407Z,21.72
2022-10-24T12:33:25.661Z,22.41
2022-10-24T12:39:08.048Z,21.90
2022-10-24T12:44:51.970Z,21.78
2022-10-24T12:49:52.034Z,21.80
2022-10-24T12:54:56.673Z,21.43
2022-10-24T12:59:59.751Z,22.57
2022-10-24T13:05:12.193Z,21.60
2022-10-24T13:10:27.003Z,21.71
2022-10-24T13:15:59.576Z,23.50
2022-10-24T13:21:46.856Z,23.36
2022-10-24T13:26:53.712Z,23.81
2022-10-24T13:31:55.537Z,22.60
2022-10-24T13:37:09.713Z,22.71
2022-10-24T13:42:16.366Z,22.38
2022-10-24T13:47:31.286Z,22.91
2022-10-24T13:52:37.806Z,22.28
2022-10-24T13:57:55.560Z,22.66
2022-10-24T14:03:04.452Z,24.10
2022-10-24T14:08:12.322Z,23.83
2022-10-24T14:13:19.197Z,24.45
2022-10-24T14:18:24.404Z,23.44
2022-10-24T14:23:34.339Z,24.13
2022-10-24T14:28:52.044Z,25.27
2022-10-24T14:34:00.277Z,25.45
2022-10-24T14:39:04.359Z,25.34
2022-10-24T14:44:19.294Z,26.38
2022-10-24T14:49:29.871Z,25.71
2022-10-24T14:54:36.068Z,27.70
2022-10-24T15:00:25.080Z,27.14
2022-10-24T15:05:35.027Z,27.83
2022-10-24T15:10:50.356Z,28.54
2022-10-24T15:15:57.184Z,28.26
2022-10-24T15:21:07.994Z,29.47
2022-10-24T15:26:13.638Z,29.48
2022-10-24T15:31:20.220Z,30.25
2022-10-24T15:36:24.105Z,31.53
2022-10-24T15:41:23.361Z,32.92
2022-10-24T15:46:24.745Z,31.98
2022-10-24T15:51:26.725Z,32.65
2022-10-24T15:56:26.417Z,33.41
2022-10-24T16:01:29.669Z,33.38
2022-10-24T16:06:30.634Z,34.51
2022-10-24T16:11:31.186Z,34.69
2022-10-24T16:16:30.526Z,35.49
2022-10-24T16:21:31.215Z,35.40
2022-10-24T16:26:31.360Z,35.64
2022-10-24T16:31:31.152Z,36.16
2022-10-24T16:36:35.713Z,36.37
2022-10-24T16:41:34.973Z,37.03
2022-10-24T16:46:43.692Z,38.71
2022-10-24T16:51:52.250Z,38.15
2022-10-24T16:57:17.758Z,37.94
2022-10-24T17:02:19.086Z,38.19
2022-10-24T17:07:19.942Z,37.50
2022-10-24T17:12:22.388Z,37.80
2022-10-24T17:17:27.767Z,37.97
2022-10-24T17:27:31.131Z,38.12
2022-10-24T17:32:33.152Z,38.46
2022-10-24T17:37:45.442Z,38.70
2022-10-24T17:42:49.738Z,40.29
2022-10-24T17:47:49.630Z,39.29
2022-10-24T17:52:52.543Z,39.20
2022-10-24T17:57:54.721Z,39.39
2022-10-24T18:02:56.886Z,39.58
2022-10-24T18:08:01.968Z,39.50
2022-10-24T18:13:02.355Z,40.29
2022-10-24T18:18:02.259Z,40.37
2022-10-24T18:23:03.832Z,40.49
2022-10-24T18:28:05.423Z,40.84
2022-10-24T18:33:04.603Z,40.92
2022-10-24T18:38:05.284Z,40.90
2022-10-24T18:43:06.249Z,41.11
2022-10-24T18:48:06.154Z,40.89
2022-10-24T18:53:10.283Z,40.94
2022-10-24T18:58:18.083Z,40.85
2022-10-24T19:03:25.145Z,41.12
2022-10-24T19:08:27.990Z,41.21
2022-10-24T19:13:28.646Z,41.14
2022-10-24T19:18:34.652Z,41.51
2022-10-24T19:23:36.231Z,42.15
2022-10-24T19:28:35.608Z,42.41
2022-10-24T19:33:35.165Z,42.33
2022-10-24T19:38:39.823Z,42.02
2022-10-24T19:43:39.596Z,42.11
2022-10-24T19:48:38.450Z,42.01
2022-10-24T19:53:40.963Z,42.33
2022-10-24T19:58:41.173Z,42.39
2022-10-24T20:03:40.651Z,42.31
2022-10-24T20:08:41.314Z,42.49
2022-10-24T20:13:40.632Z,42.35
2022-10-24T20:19:13.836Z,42.32
2022-10-24T20:24:40.405Z,42.56
2022-10-24T20:30:13.672Z,42.62
2022-10-24T20:35:44.205Z,42.99
2022-10-24T20:46:49.029Z,42.79
2022-10-24T20:52:07.857Z,43.28
2022-10-24T20:57:42.989Z,43.02
2022-10-24T21:02:55.266Z,43.19
2022-10-24T21:08:15.106Z,43.51
2022-10-24T21:13:42.154Z,43.40
2022-10-24T21:19:18.986Z,43.66
2022-10-24T21:30:27.474Z,44.08
2022-10-24T21:35:41.637Z,44.18
2022-10-24T21:47:08.064Z,44.55
2022-10-24T21:57:53.874Z,45.03
2022-10-24T22:02:54.865Z,45.52
2022-10-24T22:08:14.163Z,45.60
2022-10-24T22:13:35.388Z,45.66
2022-10-24T22:18:36.298Z,46.00
2022-10-24T22:23:35.980Z,46.00
2022-10-24T22:28:36.651Z,46.46
2022-10-24T22:33:42.134Z,46.66
2022-10-24T22:38:41.451Z,46.93
2022-10-24T22:43:40.802Z,47.70
2022-10-24T22:48:43.273Z,48.65
2022-10-24T22:53:42.692Z,48.57
2022-10-24T22:58:43.632Z,49.98
2022-10-24T23:04:00.197Z,49.34
2022-10-24T23:08:59.071Z,49.54
2022-10-24T23:13:58.387Z,49.10
2022-10-24T23:18:59.242Z,49.26
2022-10-24T23:23:58.596Z,49.12
2022-10-24T23:29:05.075Z,49.42
2022-10-24T23:34:05.911Z,49.55
2022-10-24T23:39:05.325Z,49.52
2022-10-24T23:44:06.483Z,49.84
2022-10-24T23:49:17.676Z,49.38
2022-10-24T23:54:20.905Z,49.30
2022-10-24T23:59:19.729Z,49.12
